sensor_id;sensor_type;location;lat;lon;timestamp;pressure;altitude;pressure_sealevel;temperature;humidity
39309;BME280;26019;47.510;19.122;2023-02-22T00:10:01;100156.94;;;7.59;100.00
39309;BME280;26019;47.510;19.122;2023-02-22T00:20:03;100179.19;;;7.48;100.00
39309;BME280;26019;47.510;19.122;2023-02-22T00:30:14;100179.03;;;7.17;100.00
39309;BME280;26019;47.510;19.122;2023-02-22T00:40:28;100174.63;;;7.00;100.00
39309;BME280;26019;47.510;19.122;2023-02-22T00:50:33;100178.88;;;6.94;100.00
39309;BME280;26019;47.510;19.122;2023-02-22T01:00:38;100179.63;;;6.77;100.00
39309;BME280;26019;47.510;19.122;2023-02-22T01:10:41;100175.28;;;6.70;100.00
39309;BME280;26019;47.510;19.122;2023-02-22T01:20:47;100163.53;;;7.08;100.00
39309;BME280;26019;47.510;19.122;2023-02-22T01:30:50;100175.69;;;7.40;100.00
39309;BME280;26019;47.510;19.122;2023-02-22T01:40:55;100173.28;;;7.77;100.00
39309;BME280;26019;47.510;19.122;2023-02-22T01:51:17;100168.91;;;7.51;100.00
39309;BME280;26019;47.510;19.122;2023-02-22T02:01:21;100166.22;;;7.29;100.00
39309;BME280;26019;47.510;19.122;2023-02-22T02:11:27;100168.06;;;7.55;100.00
39309;BME280;26019;47.510;19.122;2023-02-22T02:21:45;100166.31;;;7.50;100.00
39309;BME280;26019;47.510;19.122;2023-02-22T02:42:08;100150.88;;;7.48;100.00
39309;BME280;26019;47.510;19.122;2023-02-22T02:52:15;100168.06;;;7.55;100.00
39309;BME280;26019;47.510;19.122;2023-02-22T03:02:30;100169.78;;;7.55;100.00
39309;BME280;26019;47.510;19.122;2023-02-22T03:12:59;100164.66;;;7.64;100.00
39309;BME280;26019;47.510;19.122;2023-02-22T03:23:12;100166.38;;;7.57;100.00
39309;BME280;26019;47.510;19.122;2023-02-22T03:33:23;100175.78;;;7.52;100.00
39309;BME280;26019;47.510;19.122;2023-02-22T03:43:42;100168.09;;;7.71;100.00
39309;BME280;26019;47.510;19.122;2023-02-22T03:53:45;100169.91;;;7.92;100.00
39309;BME280;26019;47.510;19.122;2023-02-22T04:03:48;100186.22;;;7.92;100.00
39309;BME280;26019;47.510;19.122;2023-02-22T04:13:50;100188.00;;;8.40;100.00
39309;BME280;26019;47.510;19.122;2023-02-22T04:23:58;100187.94;;;8.06;100.00
39309;BME280;26019;47.510;19.122;2023-02-22T04:34:01;100186.94;;;7.57;100.00
39309;BME280;26019;47.510;19.122;2023-02-22T04:44:04;100185.81;;;7.09;100.00
39309;BME280;26019;47.510;19.122;2023-02-22T04:54:06;100193.94;;;6.50;100.00
39309;BME280;26019;47.510;19.122;2023-02-22T05:04:08;100187.75;;;6.25;100.00
39309;BME280;26019;47.510;19.122;2023-02-22T05:14:10;100194.47;;;6.15;100.00
39309;BME280;26019;47.510;19.122;2023-02-22T05:24:13;100190.69;;;5.85;100.00
39309;BME280;26019;47.510;19.122;2023-02-22T05:34:16;100206.00;;;5.77;100.00
39309;BME280;26019;47.510;19.122;2023-02-22T05:44:20;100217.03;;;5.68;100.00
39309;BME280;26019;47.510;19.122;2023-02-22T05:54:23;100229.31;;;5.97;100.00
39309;BME280;26019;47.510;19.122;2023-02-22T06:04:25;100254.63;;;6.39;100.00
39309;BME280;26019;47.510;19.122;2023-02-22T06:14:28;100260.16;;;6.84;100.00
39309;BME280;26019;47.510;19.122;2023-02-22T06:24:30;100250.09;;;7.10;100.00
39309;BME280;26019;47.510;19.122;2023-02-22T06:34:38;100283.78;;;7.55;100.00
39309;BME280;26019;47.510;19.122;2023-02-22T06:44:41;100284.00;;;7.92;100.00
39309;BME280;26019;47.510;19.122;2023-02-22T06:54:43;100278.06;;;8.20;100.00
39309;BME280;26019;47.510;19.122;2023-02-22T07:04:45;100284.22;;;8.61;100.00
39309;BME280;26019;47.510;19.122;2023-02-22T07:14:48;100287.69;;;8.88;100.00
39309;BME280;26019;47.510;19.122;2023-02-22T07:24:52;100290.25;;;9.06;100.00
39309;BME280;26019;47.510;19.122;2023-02-22T07:34:57;100281.63;;;9.40;100.00
39309;BME280;26019;47.510;19.122;2023-02-22T07:44:59;100289.25;;;9.88;100.00
39309;BME280;26019;47.510;19.122;2023-02-22T07:55:01;100297.72;;;10.18;100.00
39309;BME280;26019;47.510;19.122;2023-02-22T08:05:05;100291.56;;;10.49;100.00
39309;BME280;26019;47.510;19.122;2023-02-22T08:15:12;100244.94;;;10.67;100.00
39309;BME280;26019;47.510;19.122;2023-02-22T08:25:17;100295.91;;;11.51;100.00
39309;BME280;26019;47.510;19.122;2023-02-22T08:35:20;100307.22;;;12.81;92.33
39309;BME280;26019;47.510;19.122;2023-02-22T08:45:22;100301.03;;;14.72;71.26
39309;BME280;26019;47.510;19.122;2023-02-22T08:55:28;100302.97;;;15.00;64.92
39309;BME280;26019;47.510;19.122;2023-02-22T09:05:32;100295.47;;;15.22;61.18
39309;BME280;26019;47.510;19.122;2023-02-22T09:15:35;100300.16;;;13.46;71.91
39309;BME280;26019;47.510;19.122;2023-02-22T09:25:37;100288.31;;;13.77;71.87
39309;BME280;26019;47.510;19.122;2023-02-22T09:35:42;100292.00;;;14.48;67.05
39309;BME280;26019;47.510;19.122;2023-02-22T09:46:29;100289.69;;;13.95;71.31
39309;BME280;26019;47.510;19.122;2023-02-22T09:56:36;100289.59;;;14.80;62.59
39309;BME280;26019;47.510;19.122;2023-02-22T10:06:54;100274.94;;;15.12;60.80
39309;BME280;26019;47.510;19.122;2023-02-22T10:27:24;100277.38;;;16.71;53.45
39309;BME280;26019;47.510;19.122;2023-02-22T10:37:33;100260.44;;;13.86;65.46
39309;BME280;26019;47.510;19.122;2023-02-22T10:47:36;100255.75;;;13.60;67.02
39309;BME280;26019;47.510;19.122;2023-02-22T10:57:39;100258.44;;;13.98;65.72
39309;BME280;26019;47.510;19.122;2023-02-22T11:07:42;100242.88;;;13.05;73.15
39309;BME280;26019;47.510;19.122;2023-02-22T11:17:46;100234.28;;;12.48;79.61
39309;BME280;26019;47.510;19.122;2023-02-22T11:27:51;100238.28;;;12.12;83.31
39309;BME280;26019;47.510;19.122;2023-02-22T11:38:08;100230.75;;;12.52;78.42
39309;BME280;26019;47.510;19.122;2023-02-22T11:48:20;100240.38;;;12.46;80.66
39309;BME280;26019;47.510;19.122;2023-02-22T11:58:35;100227.63;;;12.87;75.95
39309;BME280;26019;47.510;19.122;2023-02-22T12:19:31;100195.56;;;12.39;77.80
39309;BME280;26019;47.510;19.122;2023-02-22T12:29:46;100210.28;;;12.35;81.14
39309;BME280;26019;47.510;19.122;2023-02-22T12:40:06;100207.50;;;13.01;78.62
39309;BME280;26019;47.510;19.122;2023-02-22T12:50:20;100193.91;;;12.88;78.48
39309;BME280;26019;47.510;19.122;2023-02-22T13:00:47;100194.72;;;13.37;72.87
39309;BME280;26019;47.510;19.122;2023-02-22T13:52:13;100169.78;;;12.81;78.00
39309;BME280;26019;47.510;19.122;2023-02-22T14:13:10;100168.59;;;12.51;80.44
39309;BME280;26019;47.510;19.122;2023-02-22T14:23:38;100177.53;;;12.33;86.50
39309;BME280;26019;47.510;19.122;2023-02-22T14:44:10;100165.88;;;12.04;90.67
39309;BME280;26019;47.510;19.122;2023-02-22T15:05:02;100165.41;;;11.71;95.23
39309;BME280;26019;47.510;19.122;2023-02-22T15:15:14;100156.00;;;11.63;100.00
39309;BME280;26019;47.510;19.122;2023-02-22T15:25:24;100147.63;;;11.43;99.13
39309;BME280;26019;47.510;19.122;2023-02-22T15:35:32;100155.28;;;11.54;98.00
39309;BME280;26019;47.510;19.122;2023-02-22T15:45:35;100143.41;;;11.39;98.76
39309;BME280;26019;47.510;19.122;2023-02-22T15:55:44;100150.31;;;11.35;99.88
39309;BME280;26019;47.510;19.122;2023-02-22T16:05:52;100135.91;;;11.15;100.00
39309;BME280;26019;47.510;19.122;2023-02-22T16:27:00;100166.34;;;10.88;100.00
39309;BME280;26019;47.510;19.122;2023-02-22T16:37:18;100145.94;;;10.56;100.00
39309;BME280;26019;47.510;19.122;2023-02-22T16:47:27;100173.53;;;10.55;100.00
39309;BME280;26019;47.510;19.122;2023-02-22T17:08:05;100195.19;;;10.32;100.00
39309;BME280;26019;47.510;19.122;2023-02-22T17:18:25;100194.47;;;10.09;100.00
39309;BME280;26019;47.510;19.122;2023-02-22T17:28:31;100191.97;;;9.98;100.00
39309;BME280;26019;47.510;19.122;2023-02-22T17:38:33;100190.28;;;9.91;100.00
39309;BME280;26019;47.510;19.122;2023-02-22T17:48:46;100175.84;;;9.54;100.00
39309;BME280;26019;47.510;19.122;2023-02-22T17:58:54;100191.41;;;9.26;100.00
39309;BME280;26019;47.510;19.122;2023-02-22T18:08:58;100183.66;;;9.12;100.00
39309;BME280;26019;47.510;19.122;2023-02-22T18:19:01;100193.16;;;9.08;98.09
39309;BME280;26019;47.510;19.122;2023-02-22T18:29:06;100180.28;;;8.74;96.93
39309;BME280;26019;47.510;19.122;2023-02-22T18:39:10;100174.31;;;8.60;93.59
39309;BME280;26019;47.510;19.122;2023-02-22T18:49:13;100176.88;;;8.50;94.78
39309;BME280;26019;47.510;19.122;2023-02-22T18:59:16;100197.44;;;8.44;93.15
39309;BME280;26019;47.510;19.122;2023-02-22T19:09:20;100202.59;;;8.33;93.06
39309;BME280;26019;47.510;19.122;2023-02-22T19:19:31;100162.22;;;8.12;95.72
39309;BME280;26019;47.510;19.122;2023-02-22T19:29:39;100211.13;;;8.14;96.09
39309;BME280;26019;47.510;19.122;2023-02-22T19:39:52;100221.41;;;8.17;94.07
39309;BME280;26019;47.510;19.122;2023-02-22T19:49:55;100215.41;;;8.13;93.99
39309;BME280;26019;47.510;19.122;2023-02-22T20:00:02;100211.97;;;8.11;94.89
39309;BME280;26019;47.510;19.122;2023-02-22T20:10:14;100216.28;;;8.18;95.98
39309;BME280;26019;47.510;19.122;2023-02-22T20:20:17;100215.44;;;8.22;92.45
39309;BME280;26019;47.510;19.122;2023-02-22T20:30:30;100211.13;;;8.17;92.04
39309;BME280;26019;47.510;19.122;2023-02-22T20:40:41;100215.41;;;8.18;89.51
39309;BME280;26019;47.510;19.122;2023-02-22T20:50:44;100229.16;;;8.20;89.47
39309;BME280;26019;47.510;19.122;2023-02-22T21:00:47;100229.09;;;8.03;89.24
39309;BME280;26019;47.510;19.122;2023-02-22T21:10:52;100231.69;;;8.04;91.22
39309;BME280;26019;47.510;19.122;2023-02-22T21:21:03;100235.13;;;8.08;89.09
39309;BME280;26019;47.510;19.122;2023-02-22T21:31:13;100230.84;;;8.05;88.26
39309;BME280;26019;47.510;19.122;2023-02-22T21:41:28;100235.06;;;7.96;86.31
39309;BME280;26019;47.510;19.122;2023-02-22T21:51:34;100225.63;;;7.90;87.97
39309;BME280;26019;47.510;19.122;2023-02-22T22:01:45;100240.25;;;7.92;88.11
39309;BME280;26019;47.510;19.122;2023-02-22T22:11:52;100232.47;;;7.80;89.10
39309;BME280;26019;47.510;19.122;2023-02-22T22:21:57;100238.44;;;7.73;87.44
39309;BME280;26019;47.510;19.122;2023-02-22T22:32:04;100228.94;;;7.58;86.22
39309;BME280;26019;47.510;19.122;2023-02-22T22:42:11;100229.75;;;7.54;89.08
39309;BME280;26019;47.510;19.122;2023-02-22T22:52:15;100234.88;;;7.44;88.77
39309;BME280;26019;47.510;19.122;2023-02-22T23:02:17;100249.47;;;7.50;91.24
39309;BME280;26019;47.510;19.122;2023-02-22T23:12:25;100242.59;;;7.46;91.15
39309;BME280;26019;47.510;19.122;2023-02-22T23:22:31;100244.16;;;7.22;94.08
39309;BME280;26019;47.510;19.122;2023-02-22T23:32:33;100228.75;;;7.22;93.14
39309;BME280;26019;47.510;19.122;2023-02-22T23:42:39;100243.19;;;7.05;94.56
39309;BME280;26019;47.510;19.122;2023-02-22T23:52:42;100250.84;;;7.01;96.77
